Time;durP1;ratioP1;P1;durP2;ratioP2;P2;SDS_P1;SDS_P2;PMS_P1;PMS_P2;Temp;Humidity;BMP_temperature;BMP_pressure;BME280_temperature;BME280_humidity;BME280_pressure;Samples;Min_cycle;Max_cycle;Signal;HPM_P1;HPM_P2
2023/01/16 00:00:10;;;;;;;;;;;;;;;;;;6260399;22;19930;-88
2023/01/16 00:02:36;;;;;;;;;;;;;;;;;;6291921;22;20396;-88
2023/01/16 00:05:02;;;;;;;;;;;;;;;;;;6265303;22;20056;-88
2023/01/16 00:07:28;;;;;;;;;;;;;;;;;;6296286;22;20233;-88
2023/01/16 00:09:54;;;;;;;;;;;;;;;;;;6270000;22;19964;-87
2023/01/16 00:12:20;;;;;;;;;;;;;;;;;;6293857;22;19990;-87
2023/01/16 00:14:46;;;;;;;;;;;;;;;;;;6268711;22;19977;-87
2023/01/16 00:17:12;;;;;;;;;;;;;;;;;;6268909;22;20044;-87
2023/01/16 00:19:38;;;;;;;;;;;;;;;;;;6269236;22;19926;-88
2023/01/16 00:22:04;;;;;;;;;;;;;;;;;;6289036;22;19970;-88
2023/01/16 00:24:30;;;;;;;;;;;;;;;;;;6269756;22;19980;-87
2023/01/16 00:26:56;;;;;;;;;;;;;;;;;;6292784;22;20284;-87
2023/01/16 00:29:22;;;;;;;;;;;;;;;;;;6267898;22;19950;-87
2023/01/16 00:31:48;;;;;;;;;;;;;;;;;;6265960;22;20274;-87
2023/01/16 00:34:14;;;;;;;;;;;;;;;;;;6293365;22;19922;-87
2023/01/16 00:36:40;;;;;;;;;;;;;;;;;;6268011;22;20326;-87
2023/01/16 00:39:05;;;;;;;;;;;;;;;;;;6291889;22;19918;-87
2023/01/16 00:41:31;;;;;;;;;;;;;;;;;;6294842;22;20476;-87
2023/01/16 00:43:58;;;;;;;;;;;;;;;;;;6264597;22;19923;-87
2023/01/16 00:46:29;;;;;;;;;;;;;;;;;;6290878;22;20385;-87
2023/01/16 00:48:56;;;;;;;;;;;;;;;;;;6262485;22;19919;-87
2023/01/16 00:51:22;;;;;;;;;;;;;;;;;;6261716;22;19926;-87
2023/01/16 00:53:48;;;;;;;;;;;;;;;;;;6292809;22;19919;-88
2023/01/16 00:56:14;;;;;;;;;;;;;;;;;;6260303;22;19941;-87
2023/01/16 00:58:40;;;;;;;;;;;;;;;;;;6262419;22;20003;-87
2023/01/16 01:01:06;;;;;;;;;;;;;;;;;;6260384;22;19926;-88
2023/01/16 01:03:32;;;;;;;;;;;;;;;;;;6264356;22;20019;-87
2023/01/16 01:06:01;;;;;;;;;;;;;;;;;;6259438;22;20197;-87
2023/01/16 01:08:27;;;;;;;;;;;;;;;;;;6260987;22;20198;-87
2023/01/16 01:10:53;;;;;;;;;;;;;;;;;;6264241;22;20324;-87
2023/01/16 01:13:19;;;;;;;;;;;;;;;;;;6263541;22;20351;-87
2023/01/16 01:15:45;;;;;;;;;;;;;;;;;;6266829;22;19926;-87
2023/01/16 01:18:11;;;;;;;;;;;;;;;;;;6263435;22;20229;-87
2023/01/16 01:20:37;;;;;;;;;;;;;;;;;;6266165;22;19923;-87
2023/01/16 01:23:03;;;;;;;;;;;;;;;;;;6262545;22;20245;-87
2023/01/16 01:25:29;;;;;;;;;;;;;;;;;;6267355;22;19926;-87
2023/01/16 01:27:55;;;;;;;;;;;;;;;;;;6287887;22;20287;-87
2023/01/16 01:30:21;;;;;;;;;;;;;;;;;;6290602;22;20011;-87
2023/01/16 01:32:47;;;;;;;;;;;;;;;;;;6287715;22;20344;-87
2023/01/16 01:35:13;;;;;;;;;;;;;;;;;;6289814;22;19919;-87
2023/01/16 01:37:39;;;;;;;;;;;;;;;;;;6292763;22;19918;-87
2023/01/16 01:40:05;;;;;;;;;;;;;;;;;;6264980;22;20244;-87
2023/01/16 01:42:43;;;;;;;;;;;;;;;;;;6295896;22;20284;-87
2023/01/16 01:45:09;;;;;;;;;;;;;;;;;;6268868;22;19925;-87
2023/01/16 01:47:35;;;;;;;;;;;;;;;;;;6271416;22;19919;-87
2023/01/16 01:50:01;;;;;;;;;;;;;;;;;;6294524;22;19918;-87
2023/01/16 01:52:27;;;;;;;;;;;;;;;;;;6298680;22;19929;-87
2023/01/16 01:54:53;;;;;;;;;;;;;;;;;;6270352;22;20326;-87
2023/01/16 01:57:19;;;;;;;;;;;;;;;;;;6294889;22;20424;-87
2023/01/16 01:59:45;;;;;;;;;;;;;;;;;;6268663;22;20216;-87
2023/01/16 02:02:11;;;;;;;;;;;;;;;;;;6264984;22;19923;-88
2023/01/16 02:04:37;;;;;;;;;;;;;;;;;;6294908;22;20389;-87
2023/01/16 02:07:03;;;;;;;;;;;;;;;;;;6294851;22;19985;-87
2023/01/16 02:09:29;;;;;;;;;;;;;;;;;;6324001;22;20251;-87
2023/01/16 02:11:55;;;;;;;;;;;;;;;;;;6293620;22;19919;-87
2023/01/16 02:14:21;;;;;;;;;;;;;;;;;;6290101;22;19976;-87
2023/01/16 02:19:31;;;;;;;;;;;;;;;;;;6322297;22;19918;-87
2023/01/16 02:21:57;;;;;;;;;;;;;;;;;;6270499;22;20289;-87
2023/01/16 02:24:23;;;;;;;;;;;;;;;;;;6268516;22;19918;-87
2023/01/16 02:26:49;;;;;;;;;;;;;;;;;;6270064;22;20069;-87
2023/01/16 02:29:15;;;;;;;;;;;;;;;;;;6266912;22;19926;-87
2023/01/16 02:31:41;;;;;;;;;;;;;;;;;;6299100;22;19934;-87
2023/01/16 02:34:07;;;;;;;;;;;;;;;;;;6297377;22;20423;-87
2023/01/16 02:36:33;;;;;;;;;;;;;;;;;;6299954;22;19922;-87
2023/01/16 02:38:59;;;;;;;;;;;;;;;;;;6298121;22;20334;-87
2023/01/16 02:41:25;;;;;;;;;;;;;;;;;;6271122;22;19993;-87
2023/01/16 02:43:51;;;;;;;;;;;;;;;;;;6293599;22;19997;-87
2023/01/16 02:46:17;;;;;;;;;;;;;;;;;;6291573;22;19927;-87
2023/01/16 02:48:43;;;;;;;;;;;;;;;;;;6293543;22;19915;-87
2023/01/16 02:51:09;;;;;;;;;;;;;;;;;;6262119;22;19962;-87
2023/01/16 02:53:35;;;;;;;;;;;;;;;;;;6292255;22;19922;-87
2023/01/16 02:56:03;;;;;;;;;;;;;;;;;;6287158;22;20204;-88
2023/01/16 02:58:29;;;;;;;;;;;;;;;;;;6294439;22;20316;-87
2023/01/16 03:00:55;;;;;;;;;;;;;;;;;;6293490;22;19972;-87
2023/01/16 03:03:21;;;;;;;;;;;;;;;;;;6293761;22;19945;-87
2023/01/16 03:05:47;;;;;;;;;;;;;;;;;;6267540;22;19934;-87
2023/01/16 03:08:13;;;;;;;;;;;;;;;;;;6288834;22;19954;-87
2023/01/16 03:10:38;;;;;;;;;;;;;;;;;;6295500;22;19922;-88
2023/01/16 03:13:07;;;;;;;;;;;;;;;;;;6266024;22;20251;-87
2023/01/16 03:15:33;;;;;;;;;;;;;;;;;;6292908;22;19919;-87
2023/01/16 03:17:59;;;;;;;;;;;;;;;;;;6292492;22;19980;-87
2023/01/16 03:20:25;;;;;;;;;;;;;;;;;;6264659;22;19933;-87
2023/01/16 03:22:51;;;;;;;;;;;;;;;;;;6265290;22;19919;-87
2023/01/16 03:25:17;;;;;;;;;;;;;;;;;;6261799;22;19923;-87
2023/01/16 03:27:44;;;;;;;;;;;;;;;;;;6266542;22;20336;-87
2023/01/16 03:30:10;;;;;;;;;;;;;;;;;;6287803;22;19919;-87
2023/01/16 03:32:40;;;;;;;;;;;;;;;;;;6292184;22;19919;-87
2023/01/16 03:35:06;;;;;;;;;;;;;;;;;;6261174;22;19915;-87
2023/01/16 03:37:32;;;;;;;;;;;;;;;;;;6292313;22;19919;-87
2023/01/16 03:40:03;;;;;;;;;;;;;;;;;;6266784;22;20332;-87
2023/01/16 03:42:29;;;;;;;;;;;;;;;;;;6294649;22;19919;-87
2023/01/16 03:44:56;;;;;;;;;;;;;;;;;;6297297;22;19914;-87
2023/01/16 03:47:23;;;;;;;;;;;;;;;;;;6293602;22;20248;-87
2023/01/16 03:49:49;;;;;;;;;;;;;;;;;;6293065;22;19919;-87
2023/01/16 03:52:15;;;;;;;;;;;;;;;;;;6292928;22;19922;-87
2023/01/16 03:54:41;;;;;;;;;;;;;;;;;;6270928;22;20375;-87
2023/01/16 03:57:07;;;;;;;;;;;;;;;;;;6271167;22;19922;-87
2023/01/16 03:59:33;;;;;;;;;;;;;;;;;;6274659;22;19926;-87
2023/01/16 04:01:59;;;;;;;;;;;;;;;;;;6298341;22;19919;-88
2023/01/16 04:04:25;;;;;;;;;;;;;;;;;;6299484;22;20274;-87
2023/01/16 04:06:50;;;;;;;;;;;;;;;;;;6296992;22;19926;-88
2023/01/16 04:09:18;;;;;;;;;;;;;;;;;;6266858;22;20373;-87
2023/01/16 04:11:44;;;;;;;;;;;;;;;;;;6296531;22;19945;-87
2023/01/16 04:14:10;;;;;;;;;;;;;;;;;;6294333;22;19919;-87
2023/01/16 04:16:36;;;;;;;;;;;;;;;;;;6296960;22;19921;-88
2023/01/16 04:19:02;;;;;;;;;;;;;;;;;;6271275;22;20360;-88
2023/01/16 04:21:28;;;;;;;;;;;;;;;;;;6296386;22;19922;-87
2023/01/16 04:23:54;;;;;;;;;;;;;;;;;;6298066;22;19971;-87
2023/01/16 04:26:20;;;;;;;;;;;;;;;;;;6269564;22;19954;-88
2023/01/16 04:28:52;;;;;;;;;;;;;;;;;;6270412;22;20285;-87
2023/01/16 04:31:18;;;;;;;;;;;;;;;;;;6269679;22;20363;-87
2023/01/16 04:33:45;;;;;;;;;;;;;;;;;;6273767;22;19922;-87
2023/01/16 04:36:11;;;;;;;;;;;;;;;;;;6295579;22;19930;-87
2023/01/16 04:38:37;;;;;;;;;;;;;;;;;;6297554;22;19918;-87
2023/01/16 04:41:03;;;;;;;;;;;;;;;;;;6297658;22;19962;-87
2023/01/16 04:43:29;;;;;;;;;;;;;;;;;;6272826;22;20335;-87
2023/01/16 04:45:55;;;;;;;;;;;;;;;;;;6297976;22;20350;-87
2023/01/16 04:48:21;;;;;;;;;;;;;;;;;;6324205;22;19919;-87
2023/01/16 04:50:47;;;;;;;;;;;;;;;;;;6296177;22;19918;-87
2023/01/16 04:53:13;;;;;;;;;;;;;;;;;;6267704;22;19926;-88
2023/01/16 04:55:39;;;;;;;;;;;;;;;;;;6272144;22;19993;-87
2023/01/16 04:58:05;;;;;;;;;;;;;;;;;;6294015;22;19952;-88
2023/01/16 05:00:31;;;;;;;;;;;;;;;;;;6298372;22;20502;-87
2023/01/16 05:02:57;;;;;;;;;;;;;;;;;;6293901;22;19923;-87
2023/01/16 05:05:23;;;;;;;;;;;;;;;;;;6294750;22;19995;-88
2023/01/16 05:08:15;;;;;;;;;;;;;;;;;;6296078;22;19930;-87
2023/01/16 05:10:35;;;;;;;;;;;;;;;;;;6322027;22;20507;-87
2023/01/16 05:13:01;;;;;;;;;;;;;;;;;;6291895;22;19993;-88
2023/01/16 05:15:27;;;;;;;;;;;;;;;;;;6324675;22;19929;-87
2023/01/16 05:17:54;;;;;;;;;;;;;;;;;;6296025;22;19918;-87
2023/01/16 05:20:20;;;;;;;;;;;;;;;;;;6294490;22;19922;-88
2023/01/16 05:22:46;;;;;;;;;;;;;;;;;;6296417;22;19921;-88
2023/01/16 05:25:12;;;;;;;;;;;;;;;;;;6297663;22;20327;-88
2023/01/16 05:27:37;;;;;;;;;;;;;;;;;;6298159;22;20215;-88
2023/01/16 05:30:03;;;;;;;;;;;;;;;;;;6296608;22;20021;-88
2023/01/16 05:32:29;;;;;;;;;;;;;;;;;;6325460;22;19918;-87
2023/01/16 05:34:55;;;;;;;;;;;;;;;;;;6297523;22;20259;-87
2023/01/16 05:37:21;;;;;;;;;;;;;;;;;;6322902;22;19915;-88
2023/01/16 05:39:47;;;;;;;;;;;;;;;;;;6297366;22;19923;-88
2023/01/16 05:42:24;;;;;;;;;;;;;;;;;;6270983;22;20001;-88
2023/01/16 05:44:50;;;;;;;;;;;;;;;;;;6297644;22;19922;-88
2023/01/16 05:47:16;;;;;;;;;;;;;;;;;;6319806;22;19919;-88
2023/01/16 05:49:42;;;;;;;;;;;;;;;;;;6267114;22;19922;-88
2023/01/16 05:52:08;;;;;;;;;;;;;;;;;;6292058;22;19919;-87
2023/01/16 05:54:34;;;;;;;;;;;;;;;;;;6267325;22;20025;-87
2023/01/16 05:57:00;;;;;;;;;;;;;;;;;;6266044;22;19957;-87
2023/01/16 05:59:26;;;;;;;;;;;;;;;;;;6293137;22;19982;-87
2023/01/16 06:01:52;;;;;;;;;;;;;;;;;;6265965;22;19919;-88
2023/01/16 06:04:19;;;;;;;;;;;;;;;;;;6264644;22;19923;-87
2023/01/16 06:06:45;;;;;;;;;;;;;;;;;;6292988;22;19919;-88
2023/01/16 06:09:10;;;;;;;;;;;;;;;;;;6318229;22;20343;-88
2023/01/16 06:11:36;;;;;;;;;;;;;;;;;;6267117;22;19922;-88
2023/01/16 06:14:04;;;;;;;;;;;;;;;;;;6294509;22;19922;-88
2023/01/16 06:16:30;;;;;;;;;;;;;;;;;;6269086;22;19942;-87
2023/01/16 06:18:56;;;;;;;;;;;;;;;;;;6270334;22;20333;-88
2023/01/16 06:21:22;;;;;;;;;;;;;;;;;;6268084;22;19925;-88
2023/01/16 06:23:48;;;;;;;;;;;;;;;;;;6295290;22;19925;-87
2023/01/16 06:26:14;;;;;;;;;;;;;;;;;;6293054;22;20355;-87
2023/01/16 06:28:40;;;;;;;;;;;;;;;;;;6323565;22;20239;-88
2023/01/16 06:31:06;;;;;;;;;;;;;;;;;;6266006;22;20255;-87
2023/01/16 06:33:32;;;;;;;;;;;;;;;;;;6296463;22;19926;-87
2023/01/16 06:35:58;;;;;;;;;;;;;;;;;;6295625;22;19975;-87
2023/01/16 06:38:24;;;;;;;;;;;;;;;;;;6267026;22;19957;-87
2023/01/16 06:40:50;;;;;;;;;;;;;;;;;;6290373;22;20343;-87
2023/01/16 06:43:16;;;;;;;;;;;;;;;;;;6267109;22;19929;-87
2023/01/16 06:45:44;;;;;;;;;;;;;;;;;;6293652;22;19919;-87
2023/01/16 06:48:10;;;;;;;;;;;;;;;;;;6265257;22;19918;-87
2023/01/16 06:50:36;;;;;;;;;;;;;;;;;;6271042;22;19944;-87
2023/01/16 06:53:04;;;;;;;;;;;;;;;;;;6260563;22;19922;-87
2023/01/16 06:55:30;;;;;;;;;;;;;;;;;;6266717;22;19918;-87
2023/01/16 06:57:56;;;;;;;;;;;;;;;;;;6266678;22;19953;-87
2023/01/16 07:00:22;;;;;;;;;;;;;;;;;;6286897;22;20278;-87
2023/01/16 07:02:48;;;;;;;;;;;;;;;;;;6289204;22;19925;-88
2023/01/16 07:05:14;;;;;;;;;;;;;;;;;;6264574;22;19915;-87
2023/01/16 07:07:40;;;;;;;;;;;;;;;;;;6266779;22;19914;-88
2023/01/16 07:10:06;;;;;;;;;;;;;;;;;;6294177;22;19919;-88
2023/01/16 07:12:32;;;;;;;;;;;;;;;;;;6270542;22;20497;-88
2023/01/16 07:23:12;;;;;;;;;;;;;;;;;;6290395;22;19989;-88
2023/01/16 07:25:38;;;;;;;;;;;;;;;;;;6295304;22;19994;-88
2023/01/16 07:28:04;;;;;;;;;;;;;;;;;;6265228;22;20236;-88
2023/01/16 07:30:30;;;;;;;;;;;;;;;;;;6295178;22;20163;-89
2023/01/16 07:32:56;;;;;;;;;;;;;;;;;;6269141;22;20407;-88
2023/01/16 07:35:22;;;;;;;;;;;;;;;;;;6294295;22;19989;-88
2023/01/16 07:37:48;;;;;;;;;;;;;;;;;;6294560;22;19919;-89
2023/01/16 07:40:14;;;;;;;;;;;;;;;;;;6269002;22;20324;-88
2023/01/16 07:42:40;;;;;;;;;;;;;;;;;;6296171;22;19926;-89
2023/01/16 07:45:06;;;;;;;;;;;;;;;;;;6266418;22;19949;-88
2023/01/16 07:47:32;;;;;;;;;;;;;;;;;;6293318;22;19926;-88
2023/01/16 07:50:01;;;;;;;;;;;;;;;;;;6324029;22;19925;-88
2023/01/16 07:52:27;;;;;;;;;;;;;;;;;;6272928;22;20363;-88
2023/01/16 07:54:53;;;;;;;;;;;;;;;;;;6271485;22;19941;-88
2023/01/16 07:57:19;;;;;;;;;;;;;;;;;;6265347;22;20302;-89
2023/01/16 07:59:45;;;;;;;;;;;;;;;;;;6273186;22;19919;-89
2023/01/16 08:02:11;;;;;;;;;;;;;;;;;;6270915;22;20328;-89
2023/01/16 08:04:37;;;;;;;;;;;;;;;;;;6302262;22;19925;-89
2023/01/16 08:07:03;;;;;;;;;;;;;;;;;;6268393;22;20298;-88
2023/01/16 08:09:29;;;;;;;;;;;;;;;;;;6294658;22;19944;-88
2023/01/16 08:11:55;;;;;;;;;;;;;;;;;;6270195;22;19919;-88
2023/01/16 08:14:21;;;;;;;;;;;;;;;;;;6292352;22;20398;-88
2023/01/16 08:16:46;;;;;;;;;;;;;;;;;;6298819;22;19997;-88
2023/01/16 08:19:12;;;;;;;;;;;;;;;;;;6293579;22;20412;-88
2023/01/16 08:21:38;;;;;;;;;;;;;;;;;;6273255;22;19958;-88
2023/01/16 08:24:04;;;;;;;;;;;;;;;;;;6297678;22;19918;-89
2023/01/16 08:26:30;;;;;;;;;;;;;;;;;;6296576;22;19918;-88
2023/01/16 08:28:57;;;;;;;;;;;;;;;;;;6297096;22;19923;-88
2023/01/16 08:31:23;;;;;;;;;;;;;;;;;;6271507;22;19922;-88
2023/01/16 08:33:49;;;;;;;;;;;;;;;;;;6274905;22;19919;-89
2023/01/16 08:36:16;;;;;;;;;;;;;;;;;;6265407;22;20379;-89
2023/01/16 08:38:42;;;;;;;;;;;;;;;;;;6297747;22;20228;-88
2023/01/16 08:51:21;;;;;;;;;;;;;;;;;;6294689;22;19925;-89
2023/01/16 08:52:08;;;;;;;;;;;;;;;;;;6296401;22;19950;-89
2023/01/16 08:54:34;;;;;;;;;;;;;;;;;;6301306;22;19926;-89
2023/01/16 08:57:00;;;;;;;;;;;;;;;;;;6271965;22;20339;-89
2023/01/16 08:59:28;;;;;;;;;;;;;;;;;;6328105;22;19993;-89
2023/01/16 09:01:54;;;;;;;;;;;;;;;;;;6324593;22;19923;-89
2023/01/16 09:04:20;;;;;;;;;;;;;;;;;;6292336;22;19924;-89
2023/01/16 09:06:46;;;;;;;;;;;;;;;;;;6292074;22;20190;-89
2023/01/16 09:09:12;;;;;;;;;;;;;;;;;;6267078;22;19964;-89
2023/01/16 09:14:23;;;;;;;;;;;;;;;;;;6296747;22;19921;-89
2023/01/16 09:16:49;;;;;;;;;;;;;;;;;;6299052;22;20020;-89
2023/01/16 09:19:15;;;;;;;;;;;;;;;;;;6268956;22;20386;-89
2023/01/16 09:21:41;;;;;;;;;;;;;;;;;;6297910;22;20014;-90
2023/01/16 09:24:08;;;;;;;;;;;;;;;;;;6267833;22;19933;-89
2023/01/16 09:26:34;;;;;;;;;;;;;;;;;;6326124;22;19914;-89
2023/01/16 09:29:00;;;;;;;;;;;;;;;;;;6292920;22;20315;-90
2023/01/16 09:31:26;;;;;;;;;;;;;;;;;;6269739;22;19926;-89
2023/01/16 09:33:54;;;;;;;;;;;;;;;;;;6295001;22;19919;-89
2023/01/16 09:36:20;;;;;;;;;;;;;;;;;;6268732;22;19918;-89
2023/01/16 10:33:48;;;;;;;;;;;;;;;;;;5781607;24;19970;-90
2023/01/16 10:36:14;;;;;;;;;;;;;;;;;;5901615;23;20315;-90
2023/01/16 10:38:42;;;;;;;;;;;;;;;;;;6127390;23;19916;-89
2023/01/16 10:49:25;;;;;;;;;;;;;;;;;;6178494;23;19924;-90
2023/01/16 10:49:30;;;;;;;;;;;;;;;;;;6298312;22;19923;-90
2023/01/16 10:52:03;;;;;;;;;;;;;;;;;;6297829;22;20357;-90
2023/01/16 10:54:32;;;;;;;;;;;;;;;;;;6268948;22;19993;-91
2023/01/16 10:57:03;;;;;;;;;;;;;;;;;;6271990;22;19958;-90
2023/01/16 10:59:29;;;;;;;;;;;;;;;;;;6273219;22;20268;-89
2023/01/16 11:01:55;;;;;;;;;;;;;;;;;;6296186;22;20244;-90
2023/01/16 11:04:36;;;;;;;;;;;;;;;;;;6271958;22;19948;-90
2023/01/16 11:07:08;;;;;;;;;;;;;;;;;;6290136;22;19919;-90
2023/01/16 11:21:26;;;;;;;;;;;;;;;;;;6196278;23;19931;-89
2023/01/16 11:24:08;;;;;;;;;;;;;;;;;;;;;
2023/01/16 11:26:43;;;;;;;;;;;;;;;;;;6256879;22;19978;-90
2023/01/16 11:29:17;;;;;;;;;;;;;;;;;;6234496;22;19945;-89
2023/01/16 11:31:54;;;;;;;;;;;;;;;;;;;;;
2023/01/16 11:34:21;;;;;;;;;;;;;;;;;;6232754;22;20296;-89
2023/01/16 11:37:07;;;;;;;;;;;;;;;;;;6198986;22;19922;-89
2023/01/16 11:48:23;;;;;;;;;;;;;;;;;;6232216;22;19919;-89
2023/01/16 11:50:49;;;;;;;;;;;;;;;;;;6232945;22;19938;-89
2023/01/16 11:53:15;;;;;;;;;;;;;;;;;;6206082;22;20249;-89
2023/01/16 11:55:41;;;;;;;;;;;;;;;;;;6237523;22;20369;-89
2023/01/16 11:58:07;;;;;;;;;;;;;;;;;;6234275;22;19919;-89
2023/01/16 12:00:33;;;;;;;;;;;;;;;;;;6242859;22;19962;-90
2023/01/16 12:02:59;;;;;;;;;;;;;;;;;;6262290;22;19922;-90
2023/01/16 12:08:11;;;;;;;;;;;;;;;;;;6290518;22;19918;-89
2023/01/16 12:10:38;;;;;;;;;;;;;;;;;;6294910;22;19930;-89
2023/01/16 12:15:49;;;;;;;;;;;;;;;;;;6292814;22;20290;-89
2023/01/16 12:18:15;;;;;;;;;;;;;;;;;;6290959;22;19973;-89
2023/01/16 12:20:41;;;;;;;;;;;;;;;;;;6268607;22;19919;-89
2023/01/16 12:23:07;;;;;;;;;;;;;;;;;;6266514;22;19922;-89
2023/01/16 12:25:33;;;;;;;;;;;;;;;;;;6293551;22;20361;-88
2023/01/16 12:27:59;;;;;;;;;;;;;;;;;;6291328;22;19919;-89
2023/01/16 12:30:25;;;;;;;;;;;;;;;;;;6292572;22;19926;-89
2023/01/16 12:32:51;;;;;;;;;;;;;;;;;;6293266;22;20272;-89
2023/01/16 12:35:17;;;;;;;;;;;;;;;;;;6292093;22;19919;-89
2023/01/16 12:37:44;;;;;;;;;;;;;;;;;;6267096;22;19945;-89
2023/01/16 12:40:10;;;;;;;;;;;;;;;;;;6265854;22;19918;-89
2023/01/16 12:45:20;;;;;;;;;;;;;;;;;;6287768;22;19954;-89
2023/01/16 12:47:46;;;;;;;;;;;;;;;;;;6292988;22;20708;-89
2023/01/16 12:50:12;;;;;;;;;;;;;;;;;;6263523;22;19925;-89
2023/01/16 12:52:38;;;;;;;;;;;;;;;;;;6267197;22;20419;-89
2023/01/16 12:55:04;;;;;;;;;;;;;;;;;;6265240;22;19993;-89
2023/01/16 12:57:30;;;;;;;;;;;;;;;;;;6290842;22;20610;-88
2023/01/16 12:59:56;;;;;;;;;;;;;;;;;;6265771;22;19965;-89
2023/01/16 13:02:22;;;;;;;;;;;;;;;;;;6263043;22;20431;-89
2023/01/16 13:04:48;;;;;;;;;;;;;;;;;;6263070;22;20339;-89
2023/01/16 13:07:14;;;;;;;;;;;;;;;;;;6260279;22;20002;-88
2023/01/16 13:09:40;;;;;;;;;;;;;;;;;;6265295;22;19919;-88
2023/01/16 13:14:51;;;;;;;;;;;;;;;;;;6290992;22;20102;-89
2023/01/16 13:17:17;;;;;;;;;;;;;;;;;;6294954;22;19922;-89
2023/01/16 13:19:43;;;;;;;;;;;;;;;;;;6268759;22;19922;-88
2023/01/16 13:22:09;;;;;;;;;;;;;;;;;;6292422;22;19963;-89
2023/01/16 13:24:35;;;;;;;;;;;;;;;;;;6293520;22;20340;-89
2023/01/16 13:27:01;;;;;;;;;;;;;;;;;;6267213;22;20162;-89
2023/01/16 13:29:27;;;;;;;;;;;;;;;;;;6296019;22;20300;-89
2023/01/16 13:31:53;;;;;;;;;;;;;;;;;;6267095;22;19921;-89
2023/01/16 13:34:19;;;;;;;;;;;;;;;;;;6266880;22;19918;-89
2023/01/16 13:36:45;;;;;;;;;;;;;;;;;;6268195;22;19925;-89
2023/01/16 13:39:11;;;;;;;;;;;;;;;;;;6289337;22;20001;-89
2023/01/16 13:41:37;;;;;;;;;;;;;;;;;;6290342;22;19989;-88
2023/01/16 13:46:48;;;;;;;;;;;;;;;;;;6288397;22;19926;-88
2023/01/16 13:49:14;;;;;;;;;;;;;;;;;;6255034;22;19923;-89
2023/01/16 13:51:40;;;;;;;;;;;;;;;;;;6287724;22;19931;-88
2023/01/16 13:54:06;;;;;;;;;;;;;;;;;;6264120;22;19922;-89
2023/01/16 13:56:32;;;;;;;;;;;;;;;;;;6289213;22;19922;-88
2023/01/16 13:59:02;;;;;;;;;;;;;;;;;;6277181;22;20351;-89
2023/01/16 14:01:40;;;;;;;;;;;;;;;;;;6256025;22;19929;-88
2023/01/16 14:10:19;;;;;;;;;;;;;;;;;;6273661;22;19918;-89
2023/01/16 14:13:12;;;;;;;;;;;;;;;;;;6269087;22;20656;-89
2023/01/16 14:18:27;;;;;;;;;;;;;;;;;;6289261;22;20371;-88
2023/01/16 14:21:12;;;;;;;;;;;;;;;;;;6264950;22;19926;-88
2023/01/16 14:24:03;;;;;;;;;;;;;;;;;;6293334;22;19919;-89
2023/01/16 14:26:48;;;;;;;;;;;;;;;;;;6292144;22;20002;-89
2023/01/16 14:29:38;;;;;;;;;;;;;;;;;;6262595;22;19923;-89
2023/01/16 14:35:04;;;;;;;;;;;;;;;;;;6291876;22;19919;-89
2023/01/16 14:37:43;;;;;;;;;;;;;;;;;;6257025;22;19958;-88
2023/01/16 14:55:12;;;;;;;;;;;;;;;;;;6262104;22;19926;-89
2023/01/16 15:13:04;;;;;;;;;;;;;;;;;;6116900;23;20012;-89
2023/01/16 15:15:43;;;;;;;;;;;;;;;;;;6050789;23;20523;-88
2023/01/16 15:46:53;;;;;;;;;;;;;;;;;;6108754;23;20379;-82
2023/01/16 15:53:06;;;;;;;;;;;;;;;;;;6153412;23;19924;-83
2023/01/16 15:56:03;;;;;;;;;;;;;;;;;;6108211;23;19917;-82
2023/01/16 15:58:52;;;;;;;;;;;;;;;;;;;;;
2023/01/16 16:04:36;;;;;;;;;;;;;;;;;;6108062;23;19921;-86
2023/01/16 16:07:05;;;;;;;;;;;;;;;;;;6121195;23;19959;-87
2023/01/16 16:12:35;;;;;;;;;;;;;;;;;;6158332;23;19927;-87
2023/01/16 16:18:01;;;;;;;;;;;;;;;;;;6170409;23;19916;-87
2023/01/16 16:20:53;;;;;;;;;;;;;;;;;;;;;
2023/01/16 16:23:40;;;;;;;;;;;;;;;;;;6237904;23;19919;-87
2023/01/16 16:29:17;;;;;;;;;;;;;;;;;;6153765;23;19966;-86
2023/01/16 16:31:49;;;;;;;;;;;;;;;;;;6237394;22;19926;-86
2023/01/16 16:43:22;;;;;;;;;;;;;;;;;;6161322;23;20481;-86
2023/01/16 16:45:58;;;;;;;;;;;;;;;;;;6193932;23;19983;-85
2023/01/16 16:48:46;;;;;;;;;;;;;;;;;;6172269;23;19971;-87
2023/01/16 16:51:29;;;;;;;;;;;;;;;;;;6135167;23;19970;-87
2023/01/16 16:54:06;;;;;;;;;;;;;;;;;;6089357;23;20417;-86
2023/01/16 16:56:40;;;;;;;;;;;;;;;;;;6089453;23;20625;-86
2023/01/16 17:02:23;;;;;;;;;;;;;;;;;;6040772;23;19930;-87
2023/01/16 17:05:08;;;;;;;;;;;;;;;;;;6090731;23;20361;-87
2023/01/16 17:13:33;;;;;;;;;;;;;;;;;;6070478;23;20278;-86
2023/01/16 17:16:21;;;;;;;;;;;;;;;;;;;;;
2023/01/16 17:18:53;;;;;;;;;;;;;;;;;;6076822;23;19921;-87
2023/01/16 17:21:19;;;;;;;;;;;;;;;;;;6082175;23;20399;-86
2023/01/16 17:23:45;;;;;;;;;;;;;;;;;;6139741;22;19975;-86
2023/01/16 17:26:12;;;;;;;;;;;;;;;;;;6202956;23;19979;-86
2023/01/16 17:28:41;;;;;;;;;;;;;;;;;;6204787;23;19970;-86
2023/01/16 17:31:07;;;;;;;;;;;;;;;;;;6197361;23;19919;-86
2023/01/16 17:33:36;;;;;;;;;;;;;;;;;;6204302;23;19999;-86
2023/01/16 17:36:12;;;;;;;;;;;;;;;;;;6196605;23;20002;-86
2023/01/16 17:38:38;;;;;;;;;;;;;;;;;;6200511;23;20240;-86
2023/01/16 17:50:39;;;;;;;;;;;;;;;;;;6225589;22;19973;-87
2023/01/16 17:53:24;;;;;;;;;;;;;;;;;;6201074;23;20385;-88
2023/01/16 17:59:31;;;;;;;;;;;;;;;;;;;;;
2023/01/16 18:05:25;;;;;;;;;;;;;;;;;;;;;
2023/01/16 18:26:12;;;;;;;;;;;;;;;;;;6075518;23;20397;-88
2023/01/16 18:35:15;;;;;;;;;;;;;;;;;;6052197;23;20057;-85
2023/01/16 18:37:41;;;;;;;;;;;;;;;;;;6082971;23;19924;-87
2023/01/16 19:03:09;;;;;;;;;;;;;;;;;;6172272;23;19974;-87
2023/01/16 19:05:45;;;;;;;;;;;;;;;;;;;;;
2023/01/16 19:08:26;;;;;;;;;;;;;;;;;;6196578;23;19920;-87
2023/01/16 19:10:52;;;;;;;;;;;;;;;;;;6150904;23;19920;-87
2023/01/16 19:13:36;;;;;;;;;;;;;;;;;;6190061;23;20004;-87
2023/01/16 19:18:52;;;;;;;;;;;;;;;;;;6257135;22;20329;-87
2023/01/16 19:21:21;;;;;;;;;;;;;;;;;;6204351;23;19931;-87
2023/01/16 19:23:47;;;;;;;;;;;;;;;;;;6232736;22;19923;-87
2023/01/16 19:26:13;;;;;;;;;;;;;;;;;;6205650;23;19919;-87
2023/01/16 19:28:41;;;;;;;;;;;;;;;;;;6206982;23;19926;-87
2023/01/16 19:34:11;;;;;;;;;;;;;;;;;;6310705;22;19975;-87
2023/01/16 19:36:38;;;;;;;;;;;;;;;;;;6326985;22;20390;-87
2023/01/16 19:39:04;;;;;;;;;;;;;;;;;;6272102;22;19925;-87
2023/01/16 19:47:02;;;;;;;;;;;;;;;;;;6292312;22;19929;-86
2023/01/16 20:45:58;;;;;;;;;;;;;;;;;;6293734;22;20257;-82
2023/01/16 20:48:26;;;;;;;;;;;;;;;;;;6264735;22;20260;-82
2023/01/16 20:50:57;;;;;;;;;;;;;;;;;;6294007;22;19967;-83
2023/01/16 20:53:24;;;;;;;;;;;;;;;;;;6293242;22;19967;-83
2023/01/16 20:55:53;;;;;;;;;;;;;;;;;;6272397;22;20243;-83
2023/01/16 20:58:21;;;;;;;;;;;;;;;;;;6294330;22;20028;-82
2023/01/16 21:00:47;;;;;;;;;;;;;;;;;;6269524;22;20252;-83
2023/01/16 21:03:16;;;;;;;;;;;;;;;;;;6267944;22;19918;-82
2023/01/16 21:05:42;;;;;;;;;;;;;;;;;;6267921;22;19921;-83
2023/01/16 21:08:11;;;;;;;;;;;;;;;;;;6266973;22;20375;-82
2023/01/16 21:10:37;;;;;;;;;;;;;;;;;;6266075;22;19922;-83
2023/01/16 21:15:50;;;;;;;;;;;;;;;;;;6294540;22;19969;-83
2023/01/16 21:23:46;;;;;;;;;;;;;;;;;;6295642;22;19918;-82
2023/01/16 21:26:20;;;;;;;;;;;;;;;;;;6267994;22;19918;-82
2023/01/16 21:28:51;;;;;;;;;;;;;;;;;;6270850;22;19915;-82
2023/01/16 21:31:20;;;;;;;;;;;;;;;;;;6264313;22;19933;-83
2023/01/16 21:33:46;;;;;;;;;;;;;;;;;;6267418;22;19918;-83
2023/01/16 21:36:23;;;;;;;;;;;;;;;;;;6264233;22;19941;-82
2023/01/16 21:38:50;;;;;;;;;;;;;;;;;;6291166;22;19914;-82
2023/01/16 21:41:21;;;;;;;;;;;;;;;;;;6266677;22;20231;-83
2023/01/16 21:46:38;;;;;;;;;;;;;;;;;;6293427;22;20228;-82
2023/01/16 21:49:10;;;;;;;;;;;;;;;;;;6289901;22;19923;-82
2023/01/16 21:51:39;;;;;;;;;;;;;;;;;;6291183;22;19919;-82
2023/01/16 21:54:06;;;;;;;;;;;;;;;;;;6289348;22;19922;-82
2023/01/16 21:56:41;;;;;;;;;;;;;;;;;;6268345;22;19915;-82
2023/01/16 21:59:17;;;;;;;;;;;;;;;;;;;;;
2023/01/16 22:01:52;;;;;;;;;;;;;;;;;;6291447;22;20254;-83
2023/01/16 22:04:24;;;;;;;;;;;;;;;;;;6264687;22;19919;-82
2023/01/16 22:06:50;;;;;;;;;;;;;;;;;;6269596;22;19915;-82
2023/01/16 22:09:18;;;;;;;;;;;;;;;;;;6265697;22;19918;-83
2023/01/16 22:22:49;;;;;;;;;;;;;;;;;;6295981;22;19923;-82
2023/01/16 22:25:17;;;;;;;;;;;;;;;;;;6266732;22;20030;-83
2023/01/16 22:27:51;;;;;;;;;;;;;;;;;;6266569;22;19923;-82
2023/01/16 22:30:29;;;;;;;;;;;;;;;;;;6294747;22;19918;-82
2023/01/16 22:32:58;;;;;;;;;;;;;;;;;;6269976;22;19993;-82
2023/01/16 22:35:24;;;;;;;;;;;;;;;;;;6267006;22;19925;-83
2023/01/16 22:37:56;;;;;;;;;;;;;;;;;;6269690;22;20407;-83
2023/01/16 22:40:22;;;;;;;;;;;;;;;;;;6269761;22;19918;-82
2023/01/16 22:42:48;;;;;;;;;;;;;;;;;;6265711;22;19972;-82
2023/01/16 22:48:06;;;;;;;;;;;;;;;;;;6286021;22;19926;-83
2023/01/16 22:50:42;;;;;;;;;;;;;;;;;;;;;
2023/01/16 22:53:08;;;;;;;;;;;;;;;;;;6291009;22;20022;-82
2023/01/16 22:55:36;;;;;;;;;;;;;;;;;;6265086;22;19919;-83
2023/01/16 22:58:11;;;;;;;;;;;;;;;;;;6268211;22;19926;-83
2023/01/16 23:00:37;;;;;;;;;;;;;;;;;;6294080;22;19972;-83
2023/01/16 23:03:06;;;;;;;;;;;;;;;;;;6261420;22;19923;-82
2023/01/16 23:05:32;;;;;;;;;;;;;;;;;;6267108;22;20333;-82
2023/01/16 23:08:02;;;;;;;;;;;;;;;;;;6265403;22;19918;-83
2023/01/16 23:10:28;;;;;;;;;;;;;;;;;;6292882;22;20218;-82
2023/01/16 23:12:57;;;;;;;;;;;;;;;;;;6291973;22;19919;-83
2023/01/16 23:18:30;;;;;;;;;;;;;;;;;;6282096;22;20370;-83
2023/01/16 23:20:56;;;;;;;;;;;;;;;;;;6267154;22;19918;-82